ENG ESP
Escola de Pilots
Telèfon 972234126 972 23 41 26
 
Aerbrava - meteorologia

Informació meteorològica aeronàutica

 

En aquest apartat apareix la informació meteorològica aeronàutica que és utilitzada a les pràctiques dels alumnes de l’Escola de Pilots del nostre centre durant la seva formació, pel que pot no ser actual i s’hauria d’utilitzar pel seu propi compte i risc. AERBRAVA no es fa responsable del seu ús.

 

TEMPS ACTUAL

Satèl·lit Meteorològic

sat24.com

Servei Meteorològic de Catalunya

 

LEGE 242030Z 00000KT CAVOK 08/06 Q1020
LEGE 242000Z VRB02KT CAVOK 09/07 Q1020
LEGE 241930Z VRB01KT CAVOK 10/08 Q1020
LEGE 241900Z 19007KT CAVOK 10/08 Q1020
LEGE 241830Z 20008KT CAVOK 10/08 Q1020
LEGE 241800Z 21006KT CAVOK 11/08 Q1020
LEGE 241730Z 20007KT CAVOK 11/09 Q1020
LEGE 241700Z 20009KT 170V230 CAVOK 12/09 Q1020
TAF LEGE 241700Z 2418/2518 VRB04KT CAVOK TX17/2513Z TN08/2507Z   TEMPO 2422/2508 2000 BR   PROB30   TEMPO 2423/2508 0800 BCFG   TEMPO 2512/2515 18010KT

Aviation Weather

 
Aerbrava en el facebook Aerbrava en el twitter Aerbrava instagram Aerbrava en el youtube Aerbrava tumblr Aerbrava flikr Aerbrava pinterest

¡html Vàlid! ¡CSS Vàlid!